sensor_id;sensor_type;location;lat;lon;timestamp;pressure;altitude;pressure_sealevel;temperature;humidity
52975;BME280;38839;45.186;5.720;2022-11-18T00:00:27;97799.19;;;19.64;52.51
52975;BME280;38839;45.186;5.720;2022-11-18T00:02:52;97797.69;;;19.46;53.42
52975;BME280;38839;45.186;5.720;2022-11-18T00:05:18;97803.75;;;19.77;52.40
52975;BME280;38839;45.186;5.720;2022-11-18T00:07:43;97801.97;;;19.92;51.92
52975;BME280;38839;45.186;5.720;2022-11-18T00:10:09;97801.09;;;19.91;51.78
52975;BME280;38839;45.186;5.720;2022-11-18T00:12:34;97807.75;;;19.84;52.04
52975;BME280;38839;45.186;5.720;2022-11-18T00:15:18;97810.38;;;19.84;52.47
52975;BME280;38839;45.186;5.720;2022-11-18T00:17:43;97811.88;;;19.59;52.83
52975;BME280;38839;45.186;5.720;2022-11-18T00:20:09;97824.75;;;19.80;52.43
52975;BME280;38839;45.186;5.720;2022-11-18T00:22:34;97826.53;;;19.65;52.56
52975;BME280;38839;45.186;5.720;2022-11-18T00:25:00;97836.50;;;19.45;53.41
52975;BME280;38839;45.186;5.720;2022-11-18T00:27:28;97853.25;;;18.85;54.14
52975;BME280;38839;45.186;5.720;2022-11-18T00:29:55;97841.56;;;18.74;53.38
52975;BME280;38839;45.186;5.720;2022-11-18T00:32:20;97863.38;;;17.98;52.86
52975;BME280;38839;45.186;5.720;2022-11-18T00:34:45;97854.09;;;18.06;51.75
52975;BME280;38839;45.186;5.720;2022-11-18T00:37:11;97854.31;;;17.86;51.27
52975;BME280;38839;45.186;5.720;2022-11-18T00:39:36;97871.00;;;17.36;51.20
52975;BME280;38839;45.186;5.720;2022-11-18T00:42:01;97853.84;;;17.78;49.93
52975;BME280;38839;45.186;5.720;2022-11-18T00:44:45;97883.50;;;17.83;49.68
52975;BME280;38839;45.186;5.720;2022-11-18T00:47:11;97889.94;;;17.77;48.75
52975;BME280;38839;45.186;5.720;2022-11-18T00:49:36;97882.34;;;17.88;48.01
52975;BME280;38839;45.186;5.720;2022-11-18T00:52:01;97869.19;;;18.20;47.82
52975;BME280;38839;45.186;5.720;2022-11-18T00:54:27;97856.69;;;18.24;47.89
52975;BME280;38839;45.186;5.720;2022-11-18T00:56:52;97858.22;;;18.44;47.49
52975;BME280;38839;45.186;5.720;2022-11-18T00:59:18;97870.56;;;18.43;46.90
52975;BME280;38839;45.186;5.720;2022-11-18T01:01:43;97870.97;;;18.52;46.29
52975;BME280;38839;45.186;5.720;2022-11-18T01:04:09;97871.47;;;18.74;46.44
52975;BME280;38839;45.186;5.720;2022-11-18T01:06:34;97877.28;;;18.65;46.23
52975;BME280;38839;45.186;5.720;2022-11-18T01:09:00;97877.44;;;18.78;46.17
52975;BME280;38839;45.186;5.720;2022-11-18T01:11:25;97881.72;;;18.80;46.49
52975;BME280;38839;45.186;5.720;2022-11-18T01:14:09;97881.19;;;18.74;46.75
52975;BME280;38839;45.186;5.720;2022-11-18T01:16:34;97888.13;;;18.60;46.93
52975;BME280;38839;45.186;5.720;2022-11-18T01:18:59;97891.75;;;18.58;47.21
52975;BME280;38839;45.186;5.720;2022-11-18T01:21:25;97893.63;;;18.56;47.44
52975;BME280;38839;45.186;5.720;2022-11-18T01:23:50;97905.75;;;18.60;47.61
52975;BME280;38839;45.186;5.720;2022-11-18T01:26:16;97909.81;;;18.49;48.07
52975;BME280;38839;45.186;5.720;2022-11-18T01:28:42;97914.94;;;18.37;48.54
52975;BME280;38839;45.186;5.720;2022-11-18T01:31:16;97919.38;;;18.36;48.85
52975;BME280;38839;45.186;5.720;2022-11-18T01:33:42;97923.44;;;18.26;49.23
52975;BME280;38839;45.186;5.720;2022-11-18T01:36:18;97932.47;;;18.22;49.36
52975;BME280;38839;45.186;5.720;2022-11-18T01:38:44;97932.56;;;17.87;49.94
52975;BME280;38839;45.186;5.720;2022-11-18T01:41:10;97932.22;;;17.23;51.52
52975;BME280;38839;45.186;5.720;2022-11-18T01:46:18;97933.78;;;17.45;51.30
52975;BME280;38839;45.186;5.720;2022-11-18T01:48:49;97940.25;;;17.03;52.19
52975;BME280;38839;45.186;5.720;2022-11-18T01:51:19;97938.41;;;17.05;51.63
52975;BME280;38839;45.186;5.720;2022-11-18T01:53:59;97946.03;;;17.46;50.88
52975;BME280;38839;45.186;5.720;2022-11-18T01:56:42;97954.56;;;17.68;50.17
52975;BME280;38839;45.186;5.720;2022-11-18T01:59:10;97960.94;;;17.99;49.48
52975;BME280;38839;45.186;5.720;2022-11-18T02:01:38;97953.91;;;18.16;49.17
52975;BME280;38839;45.186;5.720;2022-11-18T02:04:04;97946.81;;;18.34;49.06
52975;BME280;38839;45.186;5.720;2022-11-18T02:06:32;97942.22;;;18.53;48.85
52975;BME280;38839;45.186;5.720;2022-11-18T02:08:58;97949.97;;;18.40;49.29
52975;BME280;38839;45.186;5.720;2022-11-18T02:11:23;97942.03;;;18.40;49.28
52975;BME280;38839;45.186;5.720;2022-11-18T02:14:08;97956.16;;;18.23;49.96
52975;BME280;38839;45.186;5.720;2022-11-18T02:20:23;97950.72;;;18.42;50.17
52975;BME280;38839;45.186;5.720;2022-11-18T02:28:30;97950.75;;;18.58;49.74
52975;BME280;38839;45.186;5.720;2022-11-18T02:31:06;97959.84;;;18.53;49.86
52975;BME280;38839;45.186;5.720;2022-11-18T02:33:51;97954.56;;;18.53;50.19
52975;BME280;38839;45.186;5.720;2022-11-18T02:38:53;97961.41;;;17.73;52.50
52975;BME280;38839;45.186;5.720;2022-11-18T02:41:24;97960.31;;;17.94;51.83
52975;BME280;38839;45.186;5.720;2022-11-18T02:43:54;97963.06;;;18.26;50.86
52975;BME280;38839;45.186;5.720;2022-11-18T02:46:28;97956.34;;;18.36;50.69
52975;BME280;38839;45.186;5.720;2022-11-18T02:48:55;97948.50;;;18.35;50.54
52975;BME280;38839;45.186;5.720;2022-11-18T02:51:24;97956.00;;;18.42;50.48
52975;BME280;38839;45.186;5.720;2022-11-18T02:53:51;97962.75;;;18.48;50.43
52975;BME280;38839;45.186;5.720;2022-11-18T02:56:19;97949.66;;;18.29;50.55
52975;BME280;38839;45.186;5.720;2022-11-18T02:58:45;97951.97;;;18.35;50.49
52975;BME280;38839;45.186;5.720;2022-11-18T03:01:30;97955.16;;;18.42;50.52
52975;BME280;38839;45.186;5.720;2022-11-18T03:03:56;97957.88;;;18.40;50.27
52975;BME280;38839;45.186;5.720;2022-11-18T03:11:28;97946.81;;;18.34;50.66
52975;BME280;38839;45.186;5.720;2022-11-18T03:14:24;97948.13;;;18.25;50.85
52975;BME280;38839;45.186;5.720;2022-11-18T03:16:59;97957.66;;;18.12;51.05
52975;BME280;38839;45.186;5.720;2022-11-18T03:22:12;97949.75;;;17.94;51.83
52975;BME280;38839;45.186;5.720;2022-11-18T03:24:48;97955.34;;;17.88;51.88
52975;BME280;38839;45.186;5.720;2022-11-18T03:27:20;97965.13;;;18.03;51.83
52975;BME280;38839;45.186;5.720;2022-11-18T03:29:55;97962.03;;;17.95;51.81
52975;BME280;38839;45.186;5.720;2022-11-18T03:32:26;97956.56;;;17.98;51.75
52975;BME280;38839;45.186;5.720;2022-11-18T03:35:01;97965.91;;;17.88;51.92
52975;BME280;38839;45.186;5.720;2022-11-18T03:37:30;97958.28;;;17.82;52.30
52975;BME280;38839;45.186;5.720;2022-11-18T03:39:59;97954.19;;;17.76;52.91
52975;BME280;38839;45.186;5.720;2022-11-18T03:42:37;97953.72;;;17.50;53.26
52975;BME280;38839;45.186;5.720;2022-11-18T03:45:10;97964.63;;;17.43;53.64
52975;BME280;38839;45.186;5.720;2022-11-18T03:47:40;97972.72;;;17.57;53.20
52975;BME280;38839;45.186;5.720;2022-11-18T03:50:14;97968.91;;;17.63;53.03
52975;BME280;38839;45.186;5.720;2022-11-18T03:52:42;97973.09;;;17.67;52.67
52975;BME280;38839;45.186;5.720;2022-11-18T03:55:12;97974.06;;;17.66;52.62
52975;BME280;38839;45.186;5.720;2022-11-18T04:00:23;97979.38;;;17.47;53.23
52975;BME280;38839;45.186;5.720;2022-11-18T04:02:51;97978.69;;;17.43;53.43
52975;BME280;38839;45.186;5.720;2022-11-18T04:05:17;97980.63;;;17.40;53.83
52975;BME280;38839;45.186;5.720;2022-11-18T04:08:00;97976.91;;;17.44;53.64
52975;BME280;38839;45.186;5.720;2022-11-18T04:13:14;97972.97;;;17.70;52.91
52975;BME280;38839;45.186;5.720;2022-11-18T04:15:41;97976.38;;;17.55;52.90
52975;BME280;38839;45.186;5.720;2022-11-18T04:18:08;97985.59;;;17.81;52.24
52975;BME280;38839;45.186;5.720;2022-11-18T04:20:33;97985.47;;;17.84;52.21
52975;BME280;38839;45.186;5.720;2022-11-18T04:22:59;97999.38;;;17.51;53.08
52975;BME280;38839;45.186;5.720;2022-11-18T04:25:25;97993.81;;;17.57;52.64
52975;BME280;38839;45.186;5.720;2022-11-18T04:27:51;98005.88;;;17.26;53.35
52975;BME280;38839;45.186;5.720;2022-11-18T04:30:16;98010.84;;;16.96;53.67
52975;BME280;38839;45.186;5.720;2022-11-18T04:32:42;98017.03;;;16.95;53.90
52975;BME280;38839;45.186;5.720;2022-11-18T04:35:08;98023.56;;;17.05;53.91
52975;BME280;38839;45.186;5.720;2022-11-18T04:37:33;98025.41;;;17.22;53.31
52975;BME280;38839;45.186;5.720;2022-11-18T04:39:59;98033.91;;;17.46;52.61
52975;BME280;38839;45.186;5.720;2022-11-18T04:42:24;98039.28;;;17.62;52.15
52975;BME280;38839;45.186;5.720;2022-11-18T04:44:49;98055.69;;;17.14;51.75
52975;BME280;38839;45.186;5.720;2022-11-18T04:47:15;98064.41;;;16.76;53.32
52975;BME280;38839;45.186;5.720;2022-11-18T04:49:40;98057.19;;;17.19;52.22
52975;BME280;38839;45.186;5.720;2022-11-18T04:52:06;98054.41;;;17.03;51.97
52975;BME280;38839;45.186;5.720;2022-11-18T04:54:31;98047.50;;;17.01;51.93
52975;BME280;38839;45.186;5.720;2022-11-18T04:56:56;98052.88;;;16.60;52.13
52975;BME280;38839;45.186;5.720;2022-11-18T04:59:24;98055.03;;;16.31;52.18
52975;BME280;38839;45.186;5.720;2022-11-18T05:01:50;98056.19;;;17.03;51.18
52975;BME280;38839;45.186;5.720;2022-11-18T05:04:18;98079.56;;;16.32;52.21
52975;BME280;38839;45.186;5.720;2022-11-18T05:06:46;98080.91;;;16.61;51.78
52975;BME280;38839;45.186;5.720;2022-11-18T05:09:12;98070.53;;;16.37;51.79
52975;BME280;38839;45.186;5.720;2022-11-18T05:11:37;98074.44;;;16.88;51.21
52975;BME280;38839;45.186;5.720;2022-11-18T05:14:24;98074.22;;;16.54;50.68
52975;BME280;38839;45.186;5.720;2022-11-18T05:16:50;98077.50;;;17.17;50.05
52975;BME280;38839;45.186;5.720;2022-11-18T05:19:15;98079.91;;;17.58;49.26
52975;BME280;38839;45.186;5.720;2022-11-18T05:21:41;98079.97;;;17.20;49.02
52975;BME280;38839;45.186;5.720;2022-11-18T05:24:06;98075.81;;;16.77;49.52
52975;BME280;38839;45.186;5.720;2022-11-18T05:26:31;98081.81;;;17.18;49.80
52975;BME280;38839;45.186;5.720;2022-11-18T05:28:57;98078.28;;;17.56;48.68
52975;BME280;38839;45.186;5.720;2022-11-18T05:31:22;98072.34;;;17.14;48.46
52975;BME280;38839;45.186;5.720;2022-11-18T05:33:48;98076.44;;;17.58;48.16
52975;BME280;38839;45.186;5.720;2022-11-18T05:36:15;98087.44;;;17.85;47.53
52975;BME280;38839;45.186;5.720;2022-11-18T05:38:42;98090.84;;;17.87;47.55
52975;BME280;38839;45.186;5.720;2022-11-18T05:41:08;98086.69;;;17.81;47.50
52975;BME280;38839;45.186;5.720;2022-11-18T05:43:34;98088.00;;;17.73;46.97
52975;BME280;38839;45.186;5.720;2022-11-18T05:46:00;98098.50;;;17.74;46.99
52975;BME280;38839;45.186;5.720;2022-11-18T05:48:26;98101.88;;;17.59;47.17
52975;BME280;38839;45.186;5.720;2022-11-18T05:50:53;98093.28;;;17.73;46.60
52975;BME280;38839;45.186;5.720;2022-11-18T05:53:20;98105.16;;;17.64;46.42
52975;BME280;38839;45.186;5.720;2022-11-18T05:55:56;98106.84;;;17.65;45.72
52975;BME280;38839;45.186;5.720;2022-11-18T05:58:22;98110.00;;;17.54;45.33
52975;BME280;38839;45.186;5.720;2022-11-18T06:00:51;98117.88;;;17.73;44.25
52975;BME280;38839;45.186;5.720;2022-11-18T06:03:19;98129.47;;;17.88;43.83
52975;BME280;38839;45.186;5.720;2022-11-18T06:05:46;98130.56;;;17.65;44.46
52975;BME280;38839;45.186;5.720;2022-11-18T06:08:14;98135.78;;;17.66;44.39
52975;BME280;38839;45.186;5.720;2022-11-18T06:10:43;98134.94;;;17.47;44.12
52975;BME280;38839;45.186;5.720;2022-11-18T06:13:15;98122.13;;;17.58;43.86
52975;BME280;38839;45.186;5.720;2022-11-18T06:15:43;98130.34;;;17.69;43.40
52975;BME280;38839;45.186;5.720;2022-11-18T06:18:16;98131.91;;;17.74;42.87
52975;BME280;38839;45.186;5.720;2022-11-18T06:20:43;98130.34;;;17.69;43.47
52975;BME280;38839;45.186;5.720;2022-11-18T06:23:12;98130.69;;;17.81;42.97
52975;BME280;38839;45.186;5.720;2022-11-18T06:25:38;98135.91;;;17.82;42.79
52975;BME280;38839;45.186;5.720;2022-11-18T06:28:04;98145.75;;;17.79;42.69
52975;BME280;38839;45.186;5.720;2022-11-18T06:30:30;98156.53;;;17.55;42.97
52975;BME280;38839;45.186;5.720;2022-11-18T06:32:55;98149.56;;;17.54;43.22
52975;BME280;38839;45.186;5.720;2022-11-18T06:35:21;98154.88;;;17.72;42.90
52975;BME280;38839;45.186;5.720;2022-11-18T06:37:46;98160.56;;;17.81;42.92
52975;BME280;38839;45.186;5.720;2022-11-18T06:40:12;98157.03;;;17.63;42.89
52975;BME280;38839;45.186;5.720;2022-11-18T06:42:38;98169.50;;;17.79;42.46
52975;BME280;38839;45.186;5.720;2022-11-18T06:45:22;98178.91;;;17.46;44.12
52975;BME280;38839;45.186;5.720;2022-11-18T06:47:47;98189.38;;;16.48;47.64
52975;BME280;38839;45.186;5.720;2022-11-18T06:50:12;98208.78;;;16.25;49.05
52975;BME280;38839;45.186;5.720;2022-11-18T06:52:38;98213.69;;;16.13;49.77
52975;BME280;38839;45.186;5.720;2022-11-18T06:55:03;98209.09;;;16.18;50.31
52975;BME280;38839;45.186;5.720;2022-11-18T06:57:32;98216.81;;;16.22;50.49
52975;BME280;38839;45.186;5.720;2022-11-18T06:59:57;98221.31;;;15.75;51.21
52975;BME280;38839;45.186;5.720;2022-11-18T07:02:22;98216.69;;;16.03;50.43
52975;BME280;38839;45.186;5.720;2022-11-18T07:04:48;98221.31;;;15.75;51.11
52975;BME280;38839;45.186;5.720;2022-11-18T07:07:13;98225.38;;;16.05;50.37
52975;BME280;38839;45.186;5.720;2022-11-18T07:09:39;98224.91;;;15.96;51.01
52975;BME280;38839;45.186;5.720;2022-11-18T07:12:04;98234.75;;;16.13;51.16
52975;BME280;38839;45.186;5.720;2022-11-18T07:14:30;98238.53;;;15.83;51.92
52975;BME280;38839;45.186;5.720;2022-11-18T07:16:56;98249.44;;;15.25;54.31
52975;BME280;38839;45.186;5.720;2022-11-18T07:19:21;98251.00;;;15.31;54.37
52975;BME280;38839;45.186;5.720;2022-11-18T07:21:47;98253.28;;;14.92;55.36
52975;BME280;38839;45.186;5.720;2022-11-18T07:24:13;98243.84;;;14.86;55.71
52975;BME280;38839;45.186;5.720;2022-11-18T07:26:39;98253.69;;;15.04;55.46
52975;BME280;38839;45.186;5.720;2022-11-18T07:29:05;98257.88;;;15.10;54.42
52975;BME280;38839;45.186;5.720;2022-11-18T07:31:31;98248.50;;;15.28;55.28
52975;BME280;38839;45.186;5.720;2022-11-18T07:33:56;98267.25;;;15.17;55.65
52975;BME280;38839;45.186;5.720;2022-11-18T07:36:27;98271.50;;;15.68;54.48
52975;BME280;38839;45.186;5.720;2022-11-18T07:38:53;98262.69;;;16.15;53.35
52975;BME280;38839;45.186;5.720;2022-11-18T07:41:21;98280.72;;;16.46;52.84
52975;BME280;38839;45.186;5.720;2022-11-18T07:43:48;98285.94;;;16.26;52.91
52975;BME280;38839;45.186;5.720;2022-11-18T07:46:25;98286.03;;;16.89;51.71
52975;BME280;38839;45.186;5.720;2022-11-18T08:43:10;98372.03;;;16.68;52.19
52975;BME280;38839;45.186;5.720;2022-11-18T08:45:37;98371.28;;;16.20;53.18
52975;BME280;38839;45.186;5.720;2022-11-18T08:48:02;98363.06;;;16.28;52.77
52975;BME280;38839;45.186;5.720;2022-11-18T08:50:28;98365.84;;;16.25;52.94
52975;BME280;38839;45.186;5.720;2022-11-18T08:52:53;98372.88;;;16.46;52.43
52975;BME280;38839;45.186;5.720;2022-11-18T08:55:18;98371.19;;;16.45;52.42
52975;BME280;38839;45.186;5.720;2022-11-18T08:57:44;98367.06;;;16.60;51.92
52975;BME280;38839;45.186;5.720;2022-11-18T09:00:10;98378.41;;;17.06;51.04
52975;BME280;38839;45.186;5.720;2022-11-18T09:02:35;98376.81;;;16.80;50.71
52975;BME280;38839;45.186;5.720;2022-11-18T09:05:01;98383.69;;;16.84;50.81
52975;BME280;38839;45.186;5.720;2022-11-18T09:07:27;98376.63;;;17.27;49.78
52975;BME280;38839;45.186;5.720;2022-11-18T09:09:52;98387.03;;;17.30;49.48
52975;BME280;38839;45.186;5.720;2022-11-18T09:12:18;98390.19;;;17.18;49.38
52975;BME280;38839;45.186;5.720;2022-11-18T09:14:46;98390.63;;;17.69;48.53
52975;BME280;38839;45.186;5.720;2022-11-18T09:17:12;98390.06;;;17.42;48.82
52975;BME280;38839;45.186;5.720;2022-11-18T09:19:38;98397.56;;;17.30;48.93
52975;BME280;38839;45.186;5.720;2022-11-18T09:22:04;98402.72;;;17.34;48.91
52975;BME280;38839;45.186;5.720;2022-11-18T09:24:31;98399.31;;;17.32;47.93
52975;BME280;38839;45.186;5.720;2022-11-18T09:26:56;98408.22;;;18.09;47.23
52975;BME280;38839;45.186;5.720;2022-11-18T09:29:22;98408.63;;;18.00;46.82
52975;BME280;38839;45.186;5.720;2022-11-18T09:31:51;98400.88;;;18.35;46.09
52975;BME280;38839;45.186;5.720;2022-11-18T09:34:16;98399.09;;;18.36;46.31
52975;BME280;38839;45.186;5.720;2022-11-18T09:36:42;98397.81;;;18.44;46.33
52975;BME280;38839;45.186;5.720;2022-11-18T09:39:07;98386.19;;;18.66;45.58
52975;BME280;38839;45.186;5.720;2022-11-18T09:41:43;98389.25;;;19.12;44.90
52975;BME280;38839;45.186;5.720;2022-11-18T09:44:17;98388.63;;;19.59;44.05
52975;BME280;38839;45.186;5.720;2022-11-18T09:49:44;98392.50;;;19.52;42.90
52975;BME280;38839;45.186;5.720;2022-11-18T09:52:18;98395.56;;;19.44;42.33
52975;BME280;38839;45.186;5.720;2022-11-18T09:54:45;98403.41;;;19.46;42.05
52975;BME280;38839;45.186;5.720;2022-11-18T09:57:19;98407.00;;;19.80;41.32
52975;BME280;38839;45.186;5.720;2022-11-18T09:59:45;98414.31;;;19.75;41.63
52975;BME280;38839;45.186;5.720;2022-11-18T10:04:42;98414.69;;;19.15;41.06
52975;BME280;38839;45.186;5.720;2022-11-18T10:07:21;98415.94;;;19.60;40.84
52975;BME280;38839;45.186;5.720;2022-11-18T10:09:53;98416.63;;;19.63;40.21
52975;BME280;38839;45.186;5.720;2022-11-18T10:12:34;98417.25;;;19.51;39.06
52975;BME280;38839;45.186;5.720;2022-11-18T10:20:55;98423.13;;;18.10;43.65
52975;BME280;38839;45.186;5.720;2022-11-18T10:23:50;98420.66;;;17.66;44.60
52975;BME280;38839;45.186;5.720;2022-11-18T10:26:36;98420.38;;;17.73;44.41
52975;BME280;38839;45.186;5.720;2022-11-18T10:29:02;98420.78;;;17.84;44.96
52975;BME280;38839;45.186;5.720;2022-11-18T10:31:28;98431.91;;;18.30;44.21
52975;BME280;38839;45.186;5.720;2022-11-18T10:34:00;98426.19;;;17.60;45.90
52975;BME280;38839;45.186;5.720;2022-11-18T10:36:30;98427.56;;;17.48;45.59
52975;BME280;38839;45.186;5.720;2022-11-18T10:39:12;98421.28;;;17.10;46.93
52975;BME280;38839;45.186;5.720;2022-11-18T10:41:44;98412.66;;;17.06;47.13
52975;BME280;38839;45.186;5.720;2022-11-18T10:46:51;98418.09;;;17.02;47.00
52975;BME280;38839;45.186;5.720;2022-11-18T10:49:17;98412.44;;;17.54;45.93
52975;BME280;38839;45.186;5.720;2022-11-18T10:51:44;98402.84;;;17.30;45.37
52975;BME280;38839;45.186;5.720;2022-11-18T10:54:21;98407.84;;;17.78;44.89
52975;BME280;38839;45.186;5.720;2022-11-18T10:57:17;98400.09;;;17.54;44.62
52975;BME280;38839;45.186;5.720;2022-11-18T10:59:54;98408.53;;;17.62;44.07
52975;BME280;38839;45.186;5.720;2022-11-18T11:02:39;98398.50;;;17.50;44.39
52975;BME280;38839;45.186;5.720;2022-11-18T11:05:21;98388.94;;;17.88;44.23
52975;BME280;38839;45.186;5.720;2022-11-18T11:08:05;98389.59;;;17.53;44.80
52975;BME280;38839;45.186;5.720;2022-11-18T11:10:53;98382.97;;;17.44;44.72
52975;BME280;38839;45.186;5.720;2022-11-18T11:13:21;98386.66;;;17.40;45.13
52975;BME280;38839;45.186;5.720;2022-11-18T11:15:50;98392.16;;;17.75;45.33
52975;BME280;38839;45.186;5.720;2022-11-18T11:18:23;98390.31;;;17.97;44.74
52975;BME280;38839;45.186;5.720;2022-11-18T11:21:19;98389.53;;;18.52;44.11
52975;BME280;38839;45.186;5.720;2022-11-18T11:23:46;98373.06;;;19.36;42.04
52975;BME280;38839;45.186;5.720;2022-11-18T11:29:12;98366.13;;;20.01;39.18
52975;BME280;38839;45.186;5.720;2022-11-18T11:36:50;98359.31;;;20.29;37.28
52975;BME280;38839;45.186;5.720;2022-11-18T11:50:26;98344.00;;;20.82;36.67
52975;BME280;38839;45.186;5.720;2022-11-18T12:01:03;98359.78;;;19.55;39.86
52975;BME280;38839;45.186;5.720;2022-11-18T12:03:45;98363.75;;;18.94;40.76
52975;BME280;38839;45.186;5.720;2022-11-18T12:06:12;98365.63;;;18.73;41.11
52975;BME280;38839;45.186;5.720;2022-11-18T12:08:49;98368.84;;;18.05;41.14
52975;BME280;38839;45.186;5.720;2022-11-18T12:11:40;98357.69;;;18.36;40.32
52975;BME280;38839;45.186;5.720;2022-11-18T12:14:23;98351.97;;;18.45;40.48
52975;BME280;38839;45.186;5.720;2022-11-18T12:19:30;98339.13;;;19.44;38.87
52975;BME280;38839;45.186;5.720;2022-11-18T12:22:01;98344.56;;;19.58;38.66
52975;BME280;38839;45.186;5.720;2022-11-18T12:26:56;98337.47;;;19.08;38.93
52975;BME280;38839;45.186;5.720;2022-11-18T12:29:38;98327.38;;;19.16;39.29
52975;BME280;38839;45.186;5.720;2022-11-18T12:32:40;98328.88;;;19.38;38.99
52975;BME280;38839;45.186;5.720;2022-11-18T12:37:44;98323.16;;;18.95;39.91
52975;BME280;38839;45.186;5.720;2022-11-18T12:40:38;98321.59;;;19.25;39.11
52975;BME280;38839;45.186;5.720;2022-11-18T12:43:10;98315.34;;;19.44;38.41
52975;BME280;38839;45.186;5.720;2022-11-18T12:56:52;98293.28;;;19.94;37.22
52975;BME280;38839;45.186;5.720;2022-11-18T12:59:38;98290.78;;;19.91;37.03
52975;BME280;38839;45.186;5.720;2022-11-18T13:04:37;98296.63;;;19.64;36.65
52975;BME280;38839;45.186;5.720;2022-11-18T13:07:04;98288.69;;;19.64;36.76
52975;BME280;38839;45.186;5.720;2022-11-18T13:10:26;98291.16;;;19.67;36.03
52975;BME280;38839;45.186;5.720;2022-11-18T13:12:53;98282.69;;;19.78;35.74
52975;BME280;38839;45.186;5.720;2022-11-18T13:15:19;98284.09;;;19.35;36.70
52975;BME280;38839;45.186;5.720;2022-11-18T13:18:12;98276.63;;;19.43;36.53
52975;BME280;38839;45.186;5.720;2022-11-18T13:20:39;98271.75;;;20.00;35.72
52975;BME280;38839;45.186;5.720;2022-11-18T13:25:54;98272.97;;;19.61;36.76
52975;BME280;38839;45.186;5.720;2022-11-18T13:28:42;98277.38;;;19.78;36.11
52975;BME280;38839;45.186;5.720;2022-11-18T13:31:41;98270.28;;;19.79;36.00
52975;BME280;38839;45.186;5.720;2022-11-18T13:34:18;98269.78;;;19.88;35.84
52975;BME280;38839;45.186;5.720;2022-11-18T13:36:45;98264.75;;;19.99;35.78
52975;BME280;38839;45.186;5.720;2022-11-18T13:39:20;98261.41;;;20.12;36.25
52975;BME280;38839;45.186;5.720;2022-11-18T13:42:12;98258.59;;;20.30;35.74
52975;BME280;38839;45.186;5.720;2022-11-18T13:44:38;98262.78;;;19.87;35.86
52975;BME280;38839;45.186;5.720;2022-11-18T13:47:18;98262.84;;;19.69;35.93
52975;BME280;38839;45.186;5.720;2022-11-18T13:52:48;98242.28;;;19.90;35.87
52975;BME280;38839;45.186;5.720;2022-11-18T13:55:25;98231.00;;;20.19;35.75
52975;BME280;38839;45.186;5.720;2022-11-18T14:00:28;98217.09;;;19.99;35.68
52975;BME280;38839;45.186;5.720;2022-11-18T14:02:57;98216.09;;;20.02;35.78
52975;BME280;38839;45.186;5.720;2022-11-18T14:05:24;98215.25;;;19.85;35.85
52975;BME280;38839;45.186;5.720;2022-11-18T14:10:38;98210.19;;;19.65;35.89
52975;BME280;38839;45.186;5.720;2022-11-18T14:13:16;98197.19;;;19.44;36.01
52975;BME280;38839;45.186;5.720;2022-11-18T14:15:42;98194.03;;;19.54;35.71
52975;BME280;38839;45.186;5.720;2022-11-18T14:18:18;98197.34;;;19.57;35.70
52975;BME280;38839;45.186;5.720;2022-11-18T14:20:52;98184.63;;;19.64;35.77
52975;BME280;38839;45.186;5.720;2022-11-18T14:23:25;98184.59;;;19.16;36.02
52975;BME280;38839;45.186;5.720;2022-11-18T14:25:51;98173.34;;;19.28;35.88
52975;BME280;38839;45.186;5.720;2022-11-18T14:28:19;98181.38;;;19.27;36.04
52975;BME280;38839;45.186;5.720;2022-11-18T14:31:24;98175.03;;;18.80;36.15
52975;BME280;38839;45.186;5.720;2022-11-18T14:36:40;98169.25;;;18.89;36.62
52975;BME280;38839;45.186;5.720;2022-11-18T14:39:20;98170.72;;;18.78;36.61
52975;BME280;38839;45.186;5.720;2022-11-18T14:41:47;98171.84;;;18.91;36.52
52975;BME280;38839;45.186;5.720;2022-11-18T14:44:13;98170.38;;;18.85;36.40
52975;BME280;38839;45.186;5.720;2022-11-18T14:46:40;98173.31;;;18.79;36.41
52975;BME280;38839;45.186;5.720;2022-11-18T14:49:20;98167.56;;;18.71;36.46
52975;BME280;38839;45.186;5.720;2022-11-18T14:51:46;98174.47;;;18.91;36.25
52975;BME280;38839;45.186;5.720;2022-11-18T14:54:16;98179.22;;;18.84;36.00
52975;BME280;38839;45.186;5.720;2022-11-18T14:56:43;98186.34;;;18.82;36.26
52975;BME280;38839;45.186;5.720;2022-11-18T14:59:14;98200.59;;;18.80;36.18
52975;BME280;38839;45.186;5.720;2022-11-18T15:01:41;98209.75;;;18.90;36.04
52975;BME280;38839;45.186;5.720;2022-11-18T15:04:07;98220.03;;;18.79;36.47
52975;BME280;38839;45.186;5.720;2022-11-18T15:06:33;98224.09;;;18.49;36.68
52975;BME280;38839;45.186;5.720;2022-11-18T15:08:58;98233.75;;;18.50;36.49
52975;BME280;38839;45.186;5.720;2022-11-18T15:11:24;98239.03;;;18.50;36.65
52975;BME280;38839;45.186;5.720;2022-11-18T15:13:49;98250.81;;;18.26;37.06
52975;BME280;38839;45.186;5.720;2022-11-18T15:16:21;98250.94;;;18.23;37.08
52975;BME280;38839;45.186;5.720;2022-11-18T15:18:49;98256.22;;;18.23;37.67
52975;BME280;38839;45.186;5.720;2022-11-18T15:21:15;98251.91;;;18.39;37.21
52975;BME280;38839;45.186;5.720;2022-11-18T15:23:41;98256.09;;;18.26;38.01
52975;BME280;38839;45.186;5.720;2022-11-18T15:26:16;98257.22;;;18.57;37.59
52975;BME280;38839;45.186;5.720;2022-11-18T15:28:43;98248.03;;;18.46;37.98
52975;BME280;38839;45.186;5.720;2022-11-18T15:31:09;98247.56;;;18.56;38.16
52975;BME280;38839;45.186;5.720;2022-11-18T15:33:37;98240.28;;;18.61;37.96
52975;BME280;38839;45.186;5.720;2022-11-18T15:36:03;98237.06;;;18.37;38.55
52975;BME280;38839;45.186;5.720;2022-11-18T15:38:28;98244.56;;;17.72;39.70
52975;BME280;38839;45.186;5.720;2022-11-18T15:40:53;98241.69;;;17.57;39.82
52975;BME280;38839;45.186;5.720;2022-11-18T15:43:19;98237.66;;;17.88;39.38
52975;BME280;38839;45.186;5.720;2022-11-18T15:45:44;98241.56;;;17.98;39.52
52975;BME280;38839;45.186;5.720;2022-11-18T15:48:10;98221.31;;;17.80;39.73
52975;BME280;38839;45.186;5.720;2022-11-18T15:50:35;98230.88;;;17.82;39.68
52975;BME280;38839;45.186;5.720;2022-11-18T15:53:01;98232.03;;;17.77;40.03